createdAt,value
2022-08-29T00:19:07.477Z,12.9
2022-08-29T00:39:08.177Z,12.8
2022-08-29T00:49:08.861Z,12.9
2022-08-29T00:59:08.933Z,12.8
2022-08-29T01:59:11.712Z,12.1
2022-08-29T02:19:13.059Z,11.8
2022-08-29T02:49:14.672Z,11.5
2022-08-29T02:59:15.396Z,11.4
2022-08-29T03:09:15.637Z,11.4
2022-08-29T03:29:17.261Z,11.3
2022-08-29T03:59:19.006Z,11.4
2022-08-29T04:09:19.794Z,11.3
2022-08-29T04:19:19.966Z,11.4
2022-08-29T04:29:20.931Z,11.5
2022-08-29T04:39:21.575Z,11.6
2022-08-29T04:49:21.927Z,11.8
2022-08-29T05:59:26.150Z,12.5
2022-08-29T06:49:27.959Z,13.9
2022-08-29T07:09:34.417Z,14.5
2022-08-29T07:49:41.284Z,15.4
2022-08-29T08:09:44.085Z,16.6
2022-08-29T08:19:37.367Z,16.8
2022-08-29T08:29:37.843Z,17.2
2022-08-29T09:29:40.622Z,19.1
2022-08-29T09:49:42.013Z,18.1
2022-08-29T09:59:43.607Z,19
2022-08-29T10:09:42.954Z,18.9
2022-08-29T10:39:44.220Z,21.1
2022-08-29T10:49:45.157Z,20.8
2022-08-29T11:09:45.810Z,21.2
2022-08-29T11:29:47.302Z,21.3
2022-08-29T12:39:51.592Z,22.6
2022-08-29T12:49:52.377Z,22.6
2022-08-29T13:09:53.599Z,23.1
2022-08-29T13:19:53.717Z,22.6
2022-08-29T13:29:54.413Z,23
2022-08-29T13:49:54.646Z,22.4
2022-08-29T13:59:55.415Z,22.2
2022-08-29T14:20:04.004Z,22.7
2022-08-29T14:29:57.613Z,22.9
2022-08-29T14:39:58.207Z,22.9
2022-08-29T14:49:58.725Z,23
2022-08-29T14:59:59.063Z,22.9
2022-08-29T15:09:59.312Z,23.3
2022-08-29T15:30:00.410Z,23.3
2022-08-29T15:40:12.405Z,23.5
2022-08-29T15:50:01.274Z,23.3
2022-08-29T16:00:02.093Z,23.5
2022-08-29T16:10:04.788Z,23.9
2022-08-29T16:20:02.994Z,23.9
2022-08-29T16:30:04.005Z,23.4
2022-08-29T16:40:04.451Z,23.1
2022-08-29T16:50:11.545Z,22.9
2022-08-29T17:10:05.684Z,22.8
2022-08-29T17:20:06.318Z,22.8
2022-08-29T17:30:06.474Z,22.5
2022-08-29T17:40:06.533Z,22.3
2022-08-29T17:50:07.301Z,22.2
2022-08-29T18:00:07.569Z,22
2022-08-29T18:10:15.261Z,21.8
2022-08-29T18:20:09.084Z,21.6
2022-08-29T18:30:09.546Z,21.3
2022-08-29T18:40:09.924Z,20.9
2022-08-29T18:50:10.629Z,20.4
2022-08-29T19:00:11.130Z,20
2022-08-29T19:10:11.440Z,19.8
2022-08-29T19:20:11.635Z,19.5
2022-08-29T19:30:19.517Z,19.2
2022-08-29T19:40:12.779Z,19
2022-08-29T19:50:13.587Z,18.9
2022-08-29T20:10:14.731Z,18.9
2022-08-29T20:20:15.616Z,18.9
2022-08-29T20:30:16.333Z,18.7
2022-08-29T20:40:16.505Z,18.6
2022-08-29T20:50:16.769Z,18.6
2022-08-29T21:00:17.542Z,18.5
2022-08-29T21:10:18.339Z,18.4
2022-08-29T21:20:18.908Z,18.2
2022-08-29T21:30:19.484Z,18.1
2022-08-29T21:50:20.855Z,18.1
2022-08-29T22:30:22.791Z,17.4
2022-08-29T22:50:24.196Z,17.3
2022-08-29T23:00:24.506Z,17.2
2022-08-29T23:10:25.036Z,17.2
2022-08-29T23:20:33.007Z,17.2
2022-08-29T23:30:26.608Z,17.2
2022-08-29T23:40:26.999Z,17.2
2022-08-29T23:50:27.764Z,17.2
